Flight Briefing for CPX246

Departure Arrival
Benito Juárez International Airport (MMMX)
Click to view FAA NOTAMS
Los Angeles International Airport (KLAX)
Click to view FAA NOTAMS
Departure Time Arrival Time
N/A N/A
Aircraft Distance
B767-300BDSF 1351nm
Departure METAR Arrival METAR
MMMX 271044Z 08007KT 7SM SKC 15/09 A3028 NOSIG RMK HZY KLAX 271053Z 01007KT 10SM FEW020 FEW070 12/07 A2996 RMK AO2 SLP144 T01170072
Suggested Route
PPE J93 ASUTA AMMOR OLAAA1


View recent IFR Routes data
Notes



Charts and Procedures

Charts for MMMX
No chart available
Charts for KLAX
No chart available

Windy.com Weather Map